Time;durP1;ratioP1;P1;durP2;ratioP2;P2;SDS_P1;SDS_P2;PMS_P1;PMS_P2;Temp;Humidity;BMP_temperature;BMP_pressure;BME280_temperature;BME280_humidity;BME280_pressure;Samples;Min_cycle;Max_cycle;Signal;HPM_P1;HPM_P2
2022/01/28 00:02:00;;;;;;;6.35;4.22;;;4.10;99.90;;;4.15;94.58;101902.16;5050591;28;20212;-69
2022/01/28 00:04:27;;;;;;;6.95;4.28;;;4.00;99.90;;;4.13;94.60;101899.59;5051567;28;20231;-70
2022/01/28 00:06:54;;;;;;;6.47;4.57;;;4.00;99.90;;;4.13;94.49;101902.19;5058270;28;20197;-69
2022/01/28 00:09:21;;;;;;;2.70;1.67;;;4.00;99.90;;;4.11;94.55;101905.72;5066901;28;20196;-70
2022/01/28 00:11:51;;;;;;;4.38;3.25;;;4.00;99.90;;;4.09;94.79;101905.72;5071397;28;20617;-68
2022/01/28 00:19:51;;;;;;;1.88;1.50;;;4.00;99.90;;;4.15;94.62;101915.94;5050404;28;20556;-69
2022/01/28 00:38:37;;;;;;;6.53;3.70;;;3.70;99.90;;;3.84;95.67;101927.88;5035303;28;20566;-68
2022/01/28 00:41:04;;;;;;;5.22;3.30;;;3.70;99.90;;;3.83;95.51;101932.19;5054110;28;20206;-69
2022/01/28 00:43:31;;;;;;;3.63;3.20;;;3.60;99.90;;;3.83;95.25;101934.75;5054018;28;20325;-69
2022/01/28 00:45:58;;;;;;;3.05;2.60;;;3.60;99.90;;;3.82;95.65;101937.41;5053500;28;20201;-69
2022/01/28 00:48:25;;;;;;;5.20;3.45;;;3.60;99.90;;;3.82;95.45;101939.97;5054500;28;20204;-69
2022/01/28 00:50:52;;;;;;;6.97;3.95;;;3.70;99.90;;;3.78;95.21;101943.53;5054175;28;20631;-69
2022/01/28 00:53:19;;;;;;;4.80;3.40;;;3.60;99.90;;;3.78;95.86;101946.09;5068193;22;20300;-63
2022/01/28 00:55:46;;;;;;;3.50;3.13;;;3.60;99.90;;;3.85;95.35;101940.75;5043880;28;20292;-64
2022/01/28 00:58:13;;;;;;;2.70;2.40;;;3.70;99.90;;;3.87;95.23;101944.16;5052068;28;20200;-63
2022/01/28 01:00:40;;;;;;;5.50;3.88;;;3.80;99.90;;;3.85;95.83;101937.34;5048719;28;20205;-63
2022/01/28 01:03:08;;;;;;;2.95;2.65;;;3.70;99.90;;;3.86;95.86;101933.84;5042130;28;20205;-63
2022/01/28 01:05:35;;;;;;;4.15;3.00;;;3.80;99.90;;;3.96;95.50;101944.81;5036445;28;20221;-62
2022/01/28 01:08:04;;;;;;;4.38;2.92;;;3.80;99.90;;;3.91;95.25;101943.19;5020533;28;20201;-63
2022/01/28 01:10:33;;;;;;;2.30;1.58;;;3.80;99.90;;;3.95;95.53;101943.97;5035391;28;20197;-62
2022/01/28 01:13:01;;;;;;;5.60;3.38;;;3.80;99.90;;;4.04;95.40;101942.91;5050770;28;20205;-64
2022/01/28 01:15:34;;;;;;;3.33;2.80;;;3.90;99.90;;;3.96;95.14;101953.44;5054528;28;20239;-63
2022/01/28 01:18:16;;;;;;;2.42;2.25;;;3.80;99.90;;;3.92;95.32;101954.34;5044954;28;20213;-63
2022/01/28 01:23:22;;;;;;;2.65;2.40;;;3.90;99.90;;;3.97;95.53;101949.94;5052826;28;20212;-64
2022/01/28 01:28:36;;;;;;;2.50;2.30;;;3.80;99.90;;;3.99;95.13;101986.06;5052359;28;20280;-64
2022/01/28 01:31:06;;;;;;;2.25;2.10;;;3.90;99.90;;;4.02;95.63;101988.59;5045241;28;20691;-63
2022/01/28 01:33:43;;;;;;;3.35;2.55;;;3.80;99.90;;;4.12;95.30;101987.47;5051830;28;20564;-63
2022/01/28 01:36:10;;;;;;;3.67;2.45;;;4.00;99.90;;;4.06;95.51;102005.69;5035467;28;20228;-64
2022/01/28 01:38:39;;;;;;;2.47;2.38;;;3.90;99.90;;;4.04;95.50;102010.06;5049925;28;20693;-63
2022/01/28 01:41:12;;;;;;;2.70;2.50;;;3.90;99.90;;;4.06;95.01;102009.13;5053214;28;20197;-64
2022/01/28 01:44:00;;;;;;;3.45;2.45;;;3.90;99.90;;;4.11;95.45;102007.28;5051718;28;20700;-62
2022/01/28 01:46:41;;;;;;;1.98;1.77;;;4.00;99.90;;;4.21;95.05;102002.75;5051959;28;20224;-64
2022/01/28 01:52:04;;;;;;;2.53;2.30;;;4.20;99.90;;;4.35;94.17;102005.84;5019132;28;20248;-64
2022/01/28 01:54:39;;;;;;;1.92;1.75;;;4.20;99.90;;;4.31;94.21;102009.38;5016647;28;20257;-64
2022/01/28 01:57:08;;;;;;;0.73;0.73;;;4.10;99.90;;;4.36;94.14;102011.00;5033757;28;20760;-64
2022/01/28 01:59:37;;;;;;;2.30;2.15;;;4.20;99.90;;;4.32;93.85;102006.75;5018126;28;20205;-65
2022/01/28 02:02:06;;;;;;;3.50;2.15;;;4.20;99.90;;;4.32;94.00;101998.19;5064453;28;20201;-64
2022/01/28 02:04:33;;;;;;;2.35;2.15;;;4.20;99.90;;;4.36;94.27;102013.59;5030586;28;20244;-63
2022/01/28 02:07:01;;;;;;;2.80;2.15;;;4.20;99.90;;;4.41;93.31;102008.25;5026777;28;20280;-63
2022/01/28 02:09:28;;;;;;;2.08;1.65;;;4.30;99.90;;;4.48;93.40;102015.00;5052537;28;20288;-63
2022/01/28 02:11:55;;;;;;;3.10;2.60;;;4.40;99.90;;;4.51;93.42;102014.94;5051341;28;20205;-63
2022/01/28 02:14:22;;;;;;;1.75;1.65;;;4.40;99.90;;;4.52;93.70;102012.28;5027756;28;20296;-64
2022/01/28 02:16:49;;;;;;;2.15;1.98;;;4.50;99.90;;;4.54;93.39;102014.84;5052210;28;20211;-64
2022/01/28 02:19:16;;;;;;;5.93;1.92;;;4.50;99.90;;;4.57;93.07;102023.38;5034076;28;20288;-63
2022/01/28 02:21:47;;;;;;;3.40;2.10;;;4.50;99.90;;;4.68;92.24;102016.19;5018698;28;20205;-64
2022/01/28 02:24:17;;;;;;;2.05;1.80;;;4.60;99.90;;;4.75;91.77;102028.97;5051990;28;20229;-66
2022/01/28 02:26:44;;;;;;;3.78;2.67;;;4.70;99.90;;;4.76;91.65;102028.94;5032416;28;20733;-64
2022/01/28 02:29:14;;;;;;;6.15;2.47;;;4.70;99.90;;;4.74;92.29;102025.53;5051571;28;20704;-63
2022/01/28 02:31:43;;;;;;;4.88;2.75;;;4.70;99.90;;;4.78;92.05;102023.69;5051259;28;20232;-64
2022/01/28 02:34:11;;;;;;;0.90;0.88;;;4.70;99.90;;;4.84;91.54;102031.28;5033083;28;20263;-65
2022/01/28 02:36:38;;;;;;;1.80;1.65;;;4.80;99.90;;;4.84;91.21;102033.88;5051017;28;20296;-65
2022/01/28 02:39:06;;;;;;;2.70;2.50;;;4.80;99.90;;;4.84;91.59;102039.91;5051898;28;20201;-64
2022/01/28 02:41:38;;;;;;;3.78;2.95;;;4.80;99.90;;;4.87;91.24;102032.09;5052579;28;20213;-64
2022/01/28 02:46:40;;;;;;;2.40;0.90;;;4.80;99.90;;;4.98;90.68;102031.81;5050204;28;20276;-65
2022/01/28 02:49:10;;;;;;;3.25;2.47;;;4.90;99.90;;;4.85;90.81;102033.00;5033525;28;20271;-64
2022/01/28 02:51:37;;;;;;;3.97;2.35;;;4.80;99.90;;;4.78;90.85;102031.47;5051382;28;20335;-64
2022/01/28 02:54:17;;;;;;;3.80;2.70;;;4.70;99.90;;;4.75;90.85;102026.38;5034536;28;20416;-64
2022/01/28 02:57:00;;;;;;;3.97;3.00;;;4.60;99.90;;;4.65;91.12;102025.75;5005137;28;20646;-64
2022/01/28 02:59:27;;;;;;;3.50;2.92;;;4.50;99.90;;;4.60;91.98;102031.03;5050138;28;20240;-66
2022/01/28 03:01:54;;;;;;;2.45;2.17;;;4.50;99.90;;;4.54;91.43;102028.63;5056823;28;20280;-64
2022/01/28 03:07:06;;;;;;;1.95;1.55;;;4.40;99.90;;;4.53;91.85;102021.75;5036506;28;20711;-63
2022/01/28 03:09:50;;;;;;;3.17;1.95;;;4.40;99.90;;;4.52;91.66;102030.38;5051588;28;20551;-65
2022/01/28 03:12:20;;;;;;;5.82;2.80;;;4.40;99.90;;;4.41;91.95;102027.22;5050375;28;20212;-65
2022/01/28 03:15:17;;;;;;;4.15;3.03;;;4.30;99.90;;;4.42;92.01;102034.09;5051430;28;20244;-64
2022/01/28 03:22:53;;;;;;;3.45;2.65;;;4.40;99.90;;;4.51;91.96;102061.47;5051420;28;20291;-64
2022/01/28 03:25:20;;;;;;;4.15;2.90;;;4.40;99.90;;;4.60;91.04;102063.78;5041883;28;20315;-64
2022/01/28 03:27:53;;;;;;;4.03;2.65;;;4.50;99.90;;;4.53;91.25;102051.94;5049598;28;20261;-64
2022/01/28 03:30:22;;;;;;;5.13;3.78;;;4.40;99.90;;;4.37;91.90;102066.94;5044887;28;20201;-65
2022/01/28 03:32:50;;;;;;;1.15;1.05;;;4.30;99.90;;;4.28;93.01;102077.47;5033615;28;20205;-65
2022/01/28 03:35:28;;;;;;;1.90;1.38;;;4.20;99.90;;;4.38;92.41;102086.75;5051173;28;20231;-64
2022/01/28 03:38:02;;;;;;;4.15;2.65;;;4.20;99.90;;;4.37;93.11;102085.03;5051161;28;20204;-63
2022/01/28 03:40:33;;;;;;;1.50;1.40;;;4.20;99.90;;;4.43;92.35;102092.63;5051210;28;20209;-63
2022/01/28 03:43:00;;;;;;;10.07;0.85;;;4.30;99.90;;;4.54;92.68;102103.59;5051398;28;20292;-64
2022/01/28 03:45:28;;;;;;;1.40;1.30;;;4.40;99.90;;;4.57;92.50;102108.69;5050056;28;20249;-65
2022/01/28 03:47:55;;;;;;;4.03;2.55;;;4.50;99.90;;;4.56;91.98;102119.03;5032061;28;20204;-63
2022/01/28 03:50:22;;;;;;;1.20;0.90;;;4.40;99.90;;;4.61;91.93;102109.44;5050447;28;20198;-65
2022/01/28 03:52:49;;;;;;;6.75;2.97;;;4.50;99.90;;;4.55;92.45;102119.94;5053405;28;20192;-65
2022/01/28 03:55:16;;;;;;;5.13;2.90;;;4.50;99.90;;;4.49;92.87;102123.50;5062227;28;20603;-65
2022/01/28 03:57:43;;;;;;;3.55;2.90;;;4.40;99.90;;;4.55;92.70;102119.94;5070568;28;20212;-64
2022/01/28 04:00:10;;;;;;;5.10;3.10;;;4.40;99.90;;;4.53;92.59;102124.31;5051197;28;20662;-62
2022/01/28 04:02:41;;;;;;;5.50;3.72;;;4.40;99.90;;;4.49;92.54;102125.25;5060004;28;20205;-65
2022/01/28 04:13:27;;;;;;;2.65;1.73;;;4.30;99.90;;;4.48;92.70;102136.47;5036638;28;20865;-65
2022/01/28 04:18:27;;;;;;;2.55;2.35;;;4.30;99.90;;;4.44;92.96;102151.22;5050659;28;20201;-64
2022/01/28 04:20:53;;;;;;;4.15;2.92;;;4.30;99.90;;;4.43;92.71;102159.84;5032508;28;20201;-64
2022/01/28 04:23:20;;;;;;;3.05;2.67;;;4.30;99.90;;;4.62;92.03;102163.69;5029495;28;20202;-64
2022/01/28 04:25:47;;;;;;;3.33;2.90;;;4.50;99.90;;;4.54;91.87;102162.19;5050703;28;20223;-65
2022/01/28 04:28:14;;;;;;;3.63;2.70;;;4.50;99.90;;;4.58;91.99;102175.00;5032710;28;20197;-64
2022/01/28 04:30:41;;;;;;;3.83;2.80;;;4.50;99.90;;;4.69;91.11;102177.34;5034778;28;20640;-65
2022/01/28 04:33:10;;;;;;;2.72;1.90;;;4.60;99.90;;;4.68;90.90;102173.06;5045491;28;20192;-62
2022/01/28 04:35:40;;;;;;;3.70;2.65;;;4.60;99.90;;;4.60;91.22;102177.53;5053031;28;20296;-65
2022/01/28 04:40:56;;;;;;;4.45;3.25;;;4.60;99.90;;;4.66;90.60;102177.44;5050388;28;20214;-65
2022/01/28 04:44:11;;;;;;;3.45;2.97;;;4.60;99.90;;;4.63;90.69;102178.34;5050090;28;20206;-64
2022/01/28 04:49:23;;;;;;;6.35;4.00;;;4.50;99.90;;;4.61;91.11;102176.69;5021115;28;20228;-66
2022/01/28 04:52:30;;;;;;;3.22;2.67;;;4.50;99.90;;;4.59;91.35;102181.88;4990613;28;20267;-65
2022/01/28 04:55:06;;;;;;;4.45;3.28;;;4.50;99.90;;;4.55;91.37;102179.41;5045254;28;20263;-65
2022/01/28 04:58:10;;;;;;;3.90;2.88;;;4.50;99.90;;;4.57;91.28;102178.50;5060703;28;20201;-66
2022/01/28 05:27:28;;;;;;;6.72;4.13;;;4.40;99.90;;;4.55;92.12;102205.25;5035707;28;20197;-64
2022/01/28 05:29:55;;;;;;;4.90;3.10;;;4.40;99.90;;;4.46;92.68;102208.03;5034138;28;20284;-64
2022/01/28 05:32:22;;;;;;;3.03;2.72;;;4.40;99.90;;;4.45;93.21;102204.59;5032878;28;20228;-65
2022/01/28 05:34:49;;;;;;;8.80;4.88;;;4.40;99.90;;;4.52;92.69;102210.47;5055592;28;20256;-62
2022/01/28 05:37:16;;;;;;;8.10;4.50;;;4.40;99.90;;;4.59;92.13;102218.09;5049344;28;20665;-65
2022/01/28 05:39:43;;;;;;;3.60;2.78;;;4.50;99.90;;;4.62;92.32;102219.75;5051153;28;20197;-64
2022/01/28 05:42:10;;;;;;;3.88;3.33;;;4.50;99.90;;;4.64;92.27;102216.22;5050756;28;20207;-61
2022/01/28 05:44:37;;;;;;;7.45;4.32;;;4.60;99.90;;;4.71;91.67;102219.53;5059753;28;20213;-65
2022/01/28 05:47:04;;;;;;;6.03;4.35;;;4.70;99.90;;;4.68;91.63;102214.44;5051268;28;20281;-63
2022/01/28 05:49:32;;;;;;;6.20;4.05;;;4.60;99.90;;;4.73;91.30;102226.38;5052071;28;20276;-64
2022/01/28 05:51:59;;;;;;;4.15;3.17;;;4.70;99.90;;;4.75;91.26;102233.25;5050050;28;20575;-64
2022/01/28 05:54:26;;;;;;;4.53;3.63;;;4.70;99.90;;;4.86;90.72;102239.00;5050859;28;20231;-64
2022/01/28 05:56:53;;;;;;;6.80;3.33;;;4.80;99.90;;;4.81;91.22;102239.13;5016303;28;20677;-64
2022/01/28 05:59:20;;;;;;;3.60;2.78;;;4.70;99.90;;;4.79;91.16;102232.28;5033917;28;20277;-63
2022/01/28 06:01:47;;;;;;;5.20;4.00;;;4.70;99.90;;;4.77;91.28;102232.31;5051593;28;20615;-65
2022/01/28 06:04:19;;;;;;;6.00;3.88;;;4.80;99.90;;;4.85;90.87;102245.09;5053003;28;20228;-63
2022/01/28 06:06:46;;;;;;;4.20;3.17;;;4.80;99.90;;;4.88;90.33;102261.38;5035588;28;20232;-64
2022/01/28 06:09:13;;;;;;;5.30;3.45;;;4.80;99.90;;;4.91;90.32;102268.22;5052862;28;20208;-64
2022/01/28 06:11:42;;;;;;;3.63;2.90;;;4.90;99.90;;;4.94;90.25;102255.22;5034442;28;20241;-63
2022/01/28 06:14:09;;;;;;;3.70;2.90;;;4.90;99.90;;;4.98;89.69;102259.44;5051187;28;20763;-65
2022/01/28 06:16:36;;;;;;;4.95;3.75;;;4.90;99.90;;;4.98;89.90;102262.88;5033823;28;20281;-63
2022/01/28 06:19:03;;;;;;;9.85;3.72;;;4.90;99.90;;;4.98;90.49;102267.19;5033725;28;20206;-65
2022/01/28 06:21:30;;;;;;;3.95;3.47;;;4.90;99.90;;;4.97;90.24;102263.75;5051034;28;20206;-63
2022/01/28 06:23:57;;;;;;;6.88;4.55;;;4.90;99.90;;;5.08;89.75;102261.78;5055496;28;20282;-63
2022/01/28 06:26:24;;;;;;;6.22;4.13;;;5.00;99.90;;;5.09;89.29;102260.88;5063421;28;20307;-65
2022/01/28 06:28:53;;;;;;;6.85;4.00;;;5.00;99.90;;;5.07;90.00;102267.00;5045245;28;20284;-64
2022/01/28 06:31:20;;;;;;;3.75;2.88;;;5.00;99.90;;;5.08;89.57;102268.69;5051097;28;20296;-63
2022/01/28 06:33:48;;;;;;;3.78;2.63;;;5.00;99.90;;;5.19;88.84;102267.56;5034348;28;20229;-64
2022/01/28 06:36:16;;;;;;;3.88;3.40;;;5.10;99.90;;;5.20;88.33;102264.06;5051641;28;20292;-63
2022/01/28 06:38:43;;;;;;;4.07;3.05;;;5.10;99.90;;;5.13;88.78;102259.09;5050497;28;20589;-64
2022/01/28 06:41:10;;;;;;;7.80;4.57;;;5.10;99.90;;;5.05;88.94;102261.84;5033729;28;20205;-65
2022/01/28 06:43:39;;;;;;;4.13;2.30;;;5.00;99.90;;;4.93;89.48;102266.44;5016664;28;20637;-65
2022/01/28 06:46:06;;;;;;;6.50;3.80;;;4.80;99.90;;;4.95;88.87;102262.94;5020824;28;20213;-63
2022/01/28 06:48:33;;;;;;;6.30;3.13;;;4.80;99.90;;;4.94;88.61;102278.50;5051839;28;20198;-62
2022/01/28 06:51:00;;;;;;;4.30;2.47;;;4.80;99.90;;;4.91;88.53;102270.81;5038017;28;20287;-64
2022/01/28 06:53:27;;;;;;;5.15;2.40;;;4.80;99.90;;;4.93;88.55;102277.66;5053565;28;20300;-63
2022/01/28 06:55:54;;;;;;;2.97;2.50;;;4.80;99.90;;;4.95;88.13;102281.06;5081784;22;20547;-69
2022/01/28 06:58:21;;;;;;;3.90;2.95;;;4.80;99.90;;;4.92;87.95;102280.28;5069692;28;20193;-69
2022/01/28 07:00:48;;;;;;;4.20;2.83;;;4.80;99.90;;;4.89;88.20;102288.09;5073452;28;20196;-68
2022/01/28 07:03:15;;;;;;;3.85;2.40;;;4.70;99.90;;;4.80;88.35;102296.03;5052262;28;20200;-72
2022/01/28 07:05:43;;;;;;;2.80;2.30;;;4.70;99.90;;;4.89;87.89;102301.88;5063914;28;20271;-70
2022/01/28 07:08:10;;;;;;;3.25;1.58;;;4.80;99.90;;;4.96;87.62;102303.44;5061060;28;20211;-71
2022/01/28 07:10:37;;;;;;;4.32;2.63;;;4.80;99.90;;;5.02;86.91;102312.81;5072551;28;20685;-71
2022/01/28 07:13:04;;;;;;;2.40;2.20;;;4.90;99.90;;;5.11;86.58;102310.03;5049369;28;20204;-72
2022/01/28 07:15:31;;;;;;;3.00;2.38;;;5.00;99.90;;;5.12;85.67;102325.50;5054582;28;20302;-71
2022/01/28 07:18:03;;;;;;;1.75;1.63;;;5.00;99.90;;;5.12;85.76;102341.03;5068310;28;20204;-72
2022/01/28 07:20:31;;;;;;;2.70;2.53;;;5.00;99.90;;;4.99;85.71;102349.06;5071543;28;20231;-72
2022/01/28 07:22:58;;;;;;;1.80;1.70;;;4.90;99.90;;;4.97;86.07;102337.91;5069830;28;20668;-71
2022/01/28 07:25:26;;;;;;;3.53;2.00;;;4.90;99.90;;;4.91;85.89;102328.56;5070283;28;20228;-71
2022/01/28 07:27:53;;;;;;;2.55;2.35;;;4.80;99.90;;;4.96;85.55;102344.00;5068754;28;20203;-71
2022/01/28 07:30:20;;;;;;;1.88;1.63;;;4.80;99.90;;;4.98;86.42;102347.41;5071528;28;20698;-72
2022/01/28 07:32:49;;;;;;;3.00;2.35;;;4.80;99.90;;;5.02;86.04;102341.25;5068080;28;20203;-72
2022/01/28 07:35:17;;;;;;;2.00;1.90;;;4.90;99.90;;;5.09;85.46;102351.44;5052527;28;20220;-72
2022/01/28 07:37:44;;;;;;;2.13;2.03;;;5.00;99.90;;;5.16;84.69;102344.38;5069639;28;20197;-72
2022/01/28 07:40:12;;;;;;;2.30;2.03;;;5.10;99.90;;;5.21;84.66;102345.16;5065463;28;20280;-71
2022/01/28 07:42:40;;;;;;;2.38;2.00;;;5.20;99.90;;;5.25;83.96;102355.41;5049579;28;20255;-71
2022/01/28 07:45:10;;;;;;;2.25;2.05;;;5.20;99.90;;;5.25;83.56;102363.16;5049483;28;20315;-71
2022/01/28 07:47:37;;;;;;;2.05;1.95;;;5.20;99.90;;;5.37;83.03;102372.38;5047514;28;20203;-71
2022/01/28 07:50:07;;;;;;;2.05;1.95;;;5.30;99.90;;;5.35;83.46;102372.41;5062387;28;20310;-72
2022/01/28 07:52:35;;;;;;;3.63;2.10;;;5.30;99.90;;;5.42;82.95;102373.13;5049875;28;20221;-72
2022/01/28 07:55:05;;;;;;;3.88;2.88;;;5.40;99.90;;;5.43;82.43;102380.03;5059078;28;20712;-71
2022/01/28 07:57:32;;;;;;;3.88;2.70;;;5.40;99.90;;;5.45;82.18;102380.84;5068363;28;20239;-72
2022/01/28 07:59:59;;;;;;;2.15;1.95;;;5.40;99.90;;;5.50;82.56;102384.16;5068919;28;20212;-71
2022/01/28 08:02:27;;;;;;;2.13;2.00;;;5.40;99.90;;;5.49;83.15;102380.69;5048695;28;20577;-72
2022/01/28 08:04:55;;;;;;;5.68;2.60;;;5.40;99.90;;;5.51;83.23;102384.09;5066441;28;20225;-71
2022/01/28 08:07:22;;;;;;;2.08;1.95;;;5.40;99.90;;;5.55;82.60;102384.91;5069508;28;20224;-72
2022/01/28 08:09:50;;;;;;;2.85;2.60;;;5.50;99.90;;;5.54;83.05;102395.31;5065037;28;20197;-71
2022/01/28 08:12:16;;;;;;;2.83;2.63;;;5.50;99.90;;;5.55;82.62;102397.00;5068989;28;20193;-71
2022/01/28 08:14:43;;;;;;;3.58;2.75;;;5.50;99.90;;;5.63;83.12;102402.84;5068151;28;20604;-71
2022/01/28 08:17:11;;;;;;;3.10;2.65;;;5.60;99.90;;;5.66;82.85;102408.81;5067125;28;20205;-72
2022/01/28 08:19:39;;;;;;;1.92;1.80;;;5.60;99.90;;;5.68;82.80;102404.44;5068059;28;20201;-71
2022/01/28 08:22:06;;;;;;;4.93;2.40;;;5.60;99.90;;;5.73;82.28;102402.56;5060100;28;20571;-71
2022/01/28 08:24:33;;;;;;;2.67;2.47;;;5.70;99.90;;;5.75;82.17;102408.56;5058735;28;20225;-71
2022/01/28 08:27:00;;;;;;;2.75;2.38;;;5.70;99.90;;;5.77;82.00;102409.38;5069712;28;20224;-71
2022/01/28 08:29:27;;;;;;;1.55;1.52;;;5.70;99.90;;;5.82;82.05;102417.03;5059062;28;20206;-71
2022/01/28 08:31:54;;;;;;;6.65;3.17;;;5.80;99.90;;;5.94;80.42;102420.22;5057912;28;20196;-72
2022/01/28 08:34:21;;;;;;;2.17;1.27;;;5.90;99.90;;;6.02;80.67;102422.66;5075738;28;20659;-71
2022/01/28 08:36:48;;;;;;;2.08;1.98;;;6.00;99.90;;;6.07;80.19;102432.00;5067461;28;20193;-70
2022/01/28 08:39:16;;;;;;;5.13;2.05;;;6.10;99.90;;;6.09;80.16;102425.03;5063060;28;20197;-71
2022/01/28 08:41:43;;;;;;;1.30;1.30;;;6.10;99.90;;;6.14;79.29;102410.22;5049694;28;20578;-71
2022/01/28 08:44:16;;;;;;;1.75;1.42;;;6.10;99.90;;;6.19;78.91;102410.13;5082330;28;20311;-72
2022/01/28 08:46:43;;;;;;;1.42;1.30;;;6.20;99.90;;;6.15;78.82;102416.28;5054405;28;20235;-71
2022/01/28 08:49:10;;;;;;;0.70;0.70;;;6.20;99.90;;;6.36;77.48;102425.22;5068308;28;20245;-71
2022/01/28 08:51:38;;;;;;;3.83;1.77;;;6.40;99.90;;;6.54;77.44;102432.53;5080365;28;20201;-71
2022/01/28 08:54:05;;;;;;;3.17;1.50;;;6.50;99.90;;;6.66;76.43;102424.41;5069001;28;20200;-71
2022/01/28 08:56:32;;;;;;;3.93;1.60;;;6.70;99.90;;;6.73;76.41;102433.72;5065382;28;20204;-72
2022/01/28 08:58:59;;;;;;;2.78;1.90;;;6.80;99.90;;;6.83;76.05;102429.97;5069133;28;20623;-71
2022/01/28 09:01:28;;;;;;;2.10;1.90;;;6.90;99.90;;;6.83;75.09;102429.97;5066668;28;20287;-70
2022/01/28 09:03:55;;;;;;;3.22;1.95;;;6.90;99.90;;;6.93;75.27;102434.00;5050714;28;20209;-71
2022/01/28 09:06:22;;;;;;;1.13;1.03;;;7.00;99.90;;;7.10;74.80;102424.00;5051739;28;20229;-70
2022/01/28 09:08:53;;;;;;;1.83;1.73;;;7.20;99.90;;;7.30;73.95;102436.41;5064088;28;20636;-71
2022/01/28 09:13:52;;;;;;;0.73;0.73;;;8.10;99.90;;;8.94;68.68;102448.25;5059880;28;20625;-71
2022/01/28 09:16:21;;;;;;;5.80;1.87;;;9.50;99.90;;;9.09;66.46;102445.91;5035173;28;20611;-71
2022/01/28 09:18:49;;;;;;;7.10;2.00;;;9.60;99.90;;;8.62;67.88;102452.00;5071017;28;20658;-70
2022/01/28 09:21:16;;;;;;;2.00;1.47;;;9.10;99.90;;;9.05;65.98;102441.72;5067276;28;20627;-72
2022/01/28 09:23:46;;;;;;;1.67;1.30;;;9.50;99.90;;;9.04;65.07;102442.66;5051668;28;20635;-71
2022/01/28 09:26:14;;;;;;;10.73;0.73;;;9.60;99.90;;;8.85;66.22;102453.78;5051923;28;20733;-71
2022/01/28 09:28:41;;;;;;;2.23;2.00;;;9.20;99.90;;;8.73;66.96;102444.66;5072355;28;20642;-70
2022/01/28 09:31:08;;;;;;;2.63;1.20;;;8.90;99.90;;;8.62;67.34;102452.00;5073004;28;20621;-71
2022/01/28 09:33:37;;;;;;;0.93;0.93;;;8.80;99.90;;;8.35;67.99;102458.13;5082205;28;20642;-71
2022/01/28 09:36:07;;;;;;;1.03;1.03;;;8.60;99.90;;;8.41;68.38;102466.59;5092964;28;20738;-71
2022/01/28 09:38:35;;;;;;;1.63;1.33;;;8.50;99.90;;;8.26;68.68;102469.69;5069528;28;20637;-70
2022/01/28 09:41:05;;;;;;;2.43;1.10;;;8.40;99.90;;;8.26;69.45;102461.06;5052315;28;21209;-71
2022/01/28 09:43:33;;;;;;;1.57;1.47;;;8.30;99.90;;;8.10;69.90;102478.88;5068883;28;20649;-71
2022/01/28 09:46:02;;;;;;;1.77;1.67;;;8.20;99.90;;;8.14;70.26;102474.41;5085958;28;20664;-71
2022/01/28 09:48:30;;;;;;;2.80;2.13;;;8.20;99.90;;;8.16;70.19;102491.69;5076653;28;20634;-71
2022/01/28 09:51:02;;;;;;;1.73;1.63;;;8.20;99.90;;;8.21;69.90;102491.53;5059014;28;20651;-71
2022/01/28 09:53:30;;;;;;;1.50;1.40;;;8.30;99.90;;;8.26;69.31;102494.88;5070178;28;20630;-70
2022/01/28 09:55:57;;;;;;;1.40;1.30;;;8.40;99.90;;;8.09;70.20;102497.16;5071682;28;20656;-70
2022/01/28 09:58:25;;;;;;;3.27;1.67;;;8.20;99.90;;;8.12;69.83;102494.44;5071647;28;20634;-71
2022/01/28 10:00:52;;;;;;;0.70;0.60;;;8.20;99.90;;;7.93;69.48;102494.16;5070959;28;20682;-72
2022/01/28 10:03:20;;;;;;;1.43;1.10;;;8.00;99.90;;;7.99;69.59;102490.50;5057767;28;20981;-72
2022/01/28 10:05:50;;;;;;;1.80;1.20;;;8.00;99.90;;;7.91;69.28;102485.56;5067809;28;20651;-70
2022/01/28 10:08:26;;;;;;;1.37;1.20;;;8.00;99.90;;;7.96;69.35;102490.63;5054907;28;20630;-71
2022/01/28 10:11:15;;;;;;;2.70;1.97;;;8.00;99.90;;;8.09;69.62;102489.34;5061660;28;20641;-71
2022/01/28 10:13:55;;;;;;;1.10;1.10;;;8.10;99.90;;;8.03;69.13;102497.34;5053683;28;20633;-71
2022/01/28 10:16:28;;;;;;;2.53;1.13;;;8.00;99.90;;;8.11;68.31;102479.75;5071302;28;20617;-70
2022/01/28 10:19:09;;;;;;;0.77;0.77;;;8.20;99.90;;;8.20;68.06;102489.84;5071215;28;20619;-71
2022/01/28 10:21:42;;;;;;;0.67;0.67;;;8.30;99.90;;;8.25;67.85;102487.94;5078783;28;20630;-71
2022/01/28 10:24:20;;;;;;;0.73;0.73;;;8.30;99.90;;;8.34;67.36;102492.88;5060428;28;20627;-70
2022/01/28 10:26:53;;;;;;;1.73;1.10;;;8.40;99.90;;;8.33;67.33;102485.94;5064690;28;20670;-70
2022/01/28 10:29:32;;;;;;;2.80;0.87;;;8.40;99.90;;;8.64;66.28;102497.03;5069013;28;20634;-71
2022/01/28 10:32:10;;;;;;;0.93;0.93;;;8.70;99.90;;;8.82;65.24;102495.53;5072226;28;20690;-69
2022/01/28 10:34:50;;;;;;;0.57;0.57;;;8.90;99.90;;;9.32;63.55;102487.59;5090590;28;20632;-70
2022/01/28 10:37:28;;;;;;;0.50;0.50;;;9.40;99.90;;;10.17;61.15;102471.22;5052847;28;20711;-71
2022/01/28 10:40:02;;;;;;;1.37;1.17;;;10.60;99.90;;;11.13;57.56;102478.34;5066600;28;20746;-71
2022/01/28 10:42:41;;;;;;;1.87;1.67;;;11.90;99.90;;;11.87;55.06;102483.56;5051750;28;20626;-72
2022/01/28 10:45:12;;;;;;;2.53;0.90;;;12.60;99.90;;;12.02;54.86;102488.06;5058668;28;20686;-70
2022/01/28 10:47:46;;;;;;;10.13;1.90;;;12.90;97.70;;;11.43;55.73;102495.25;5064167;28;20763;-71
2022/01/28 10:50:29;;;;;;;2.27;1.30;;;12.40;98.50;;;11.40;56.68;102498.84;5065768;28;20761;-70
2022/01/28 10:53:15;;;;;;;2.17;1.80;;;11.80;99.90;;;11.15;57.27;102503.50;5066870;28;20631;-70
2022/01/28 10:55:49;;;;;;;2.23;1.23;;;11.60;99.90;;;10.88;59.21;102496.88;5069910;28;20659;-71
2022/01/28 10:58:24;;;;;;;1.80;1.17;;;11.20;99.90;;;10.68;59.15;102483.84;5064104;28;20666;-70
2022/01/28 11:00:57;;;;;;;3.07;2.10;;;11.00;99.90;;;10.55;60.24;102478.28;5063905;28;21480;-71
2022/01/28 11:03:27;;;;;;;2.17;1.63;;;10.80;99.90;;;10.24;61.04;102467.47;5062090;28;20746;-71
2022/01/28 11:05:59;;;;;;;3.90;1.90;;;10.60;99.90;;;10.02;61.65;102474.41;5056433;28;20659;-71
2022/01/28 11:08:32;;;;;;;1.40;1.07;;;10.30;99.90;;;10.02;62.04;102474.41;5059009;28;20682;-71
2022/01/28 11:11:00;;;;;;;0.80;0.80;;;10.20;99.90;;;10.05;62.79;102479.53;5068037;28;20625;-71
2022/01/28 11:13:28;;;;;;;3.53;2.00;;;10.20;99.90;;;10.16;62.14;102474.72;5067914;28;20651;-71
2022/01/28 11:15:57;;;;;;;1.63;0.93;;;10.30;99.90;;;10.03;62.13;102482.19;5050392;28;20726;-71
2022/01/28 11:18:26;;;;;;;2.43;1.70;;;10.30;99.90;;;10.04;62.32;102475.22;5063876;28;20722;-71
2022/01/28 11:20:59;;;;;;;1.63;1.57;;;10.30;99.90;;;10.10;62.03;102472.34;5050962;28;20653;-71
2022/01/28 11:23:52;;;;;;;1.97;1.60;;;10.20;99.90;;;9.99;62.11;102471.91;5062468;28;20661;-70
2022/01/28 11:27:02;;;;;;;8.57;3.50;;;10.20;99.90;;;9.80;61.75;102471.81;5053186;28;20706;-71
2022/01/28 11:29:30;;;;;;;0.90;0.67;;;10.00;99.90;;;9.68;62.07;102468.84;5061471;28;20719;-72
2022/01/28 11:32:14;;;;;;;3.13;0.80;;;9.80;99.90;;;9.64;62.00;102456.84;5056802;28;20633;-70
2022/01/28 11:35:02;;;;;;;1.40;1.33;;;9.70;99.90;;;9.42;61.86;102463.78;5055327;28;20646;-71
2022/01/28 11:37:32;;;;;;;1.23;1.13;;;9.50;99.90;;;9.11;61.88;102459.75;5070879;28;20607;-72
2022/01/28 11:40:11;;;;;;;1.90;1.40;;;9.20;99.90;;;9.07;62.43;102465.13;5066657;28;21405;-69
2022/01/28 11:42:38;;;;;;;1.10;1.00;;;9.00;99.90;;;9.16;63.21;102481.25;5034305;28;20595;-69
2022/01/28 11:45:11;;;;;;;0.67;0.50;;;9.00;99.90;;;9.14;62.48;102477.00;5051755;28;21631;-69
2022/01/28 11:47:53;;;;;;;1.67;1.57;;;9.10;99.90;;;9.22;62.39;102482.78;5053603;28;20698;-70
2022/01/28 11:50:25;;;;;;;0.67;0.67;;;9.10;99.90;;;9.25;61.66;102469.63;5050622;28;20618;-70
2022/01/28 11:52:56;;;;;;;1.03;1.03;;;9.10;99.90;;;9.24;60.13;102468.78;5050426;28;20669;-70
2022/01/28 11:55:26;;;;;;;1.57;1.43;;;9.10;99.90;;;9.13;61.45;102464.91;5051223;28;20639;-70
2022/01/28 11:57:54;;;;;;;5.73;2.47;;;9.10;99.90;;;9.16;62.19;102456.94;5051976;28;21245;-71
2022/01/28 12:00:44;;;;;;;1.23;1.17;;;9.10;99.90;;;9.23;61.54;102446.25;5051664;28;20624;-70
2022/01/28 12:03:26;;;;;;;3.23;1.70;;;9.10;99.90;;;9.14;61.80;102445.75;5051778;28;20616;-71
2022/01/28 12:05:56;;;;;;;1.40;1.30;;;9.10;99.90;;;9.15;61.38;102447.47;5049942;28;20640;-69